createdAt,value
2022-12-18T00:02:13.279Z,102132.17
2022-12-18T00:04:40.029Z,102129.98
2022-12-18T00:07:07.178Z,102136.29
2022-12-18T00:09:39.742Z,102135.63
2022-12-18T00:14:45.234Z,102138.15
2022-12-18T00:17:11.749Z,102137.10
2022-12-18T00:19:38.250Z,102136.62
2022-12-18T00:22:06.418Z,102140.72
2022-12-18T00:24:33.044Z,102139.45
2022-12-18T00:26:59.454Z,102142.36
2022-12-18T00:29:26.151Z,102142.85
2022-12-18T00:31:52.819Z,102147.50
2022-12-18T00:34:19.263Z,102148.61
2022-12-18T00:36:48.256Z,102152.19
2022-12-18T00:39:14.808Z,102155.11
2022-12-18T00:41:59.731Z,102156.41
2022-12-18T00:44:26.478Z,102165.07
2022-12-18T00:46:53.266Z,102161.96
2022-12-18T00:49:20.534Z,102168.73
2022-12-18T00:51:47.951Z,102174.95
2022-12-18T00:54:14.568Z,102176.00
2022-12-18T00:56:48.160Z,102177.59
2022-12-18T00:59:16.879Z,102179.21
2022-12-18T01:01:43.517Z,102185.77
2022-12-18T01:04:10.181Z,102189.14
2022-12-18T01:06:37.018Z,102194.55
2022-12-18T01:09:03.661Z,102196.11
2022-12-18T01:11:30.548Z,102201.33
2022-12-18T01:14:00.180Z,102209.70
2022-12-18T01:16:26.872Z,102215.48
2022-12-18T01:18:54.901Z,102214.39
2022-12-18T01:21:22.175Z,102215.48
2022-12-18T01:23:52.704Z,102219.50
2022-12-18T01:26:19.877Z,102223.11
2022-12-18T01:28:46.729Z,102227.56
2022-12-18T01:31:23.197Z,102227.84
2022-12-18T01:33:51.568Z,102227.19
2022-12-18T01:36:29.990Z,102230.50
2022-12-18T01:38:57.370Z,102230.43
2022-12-18T01:41:26.549Z,102231.18
2022-12-18T01:43:54.173Z,102234.55
2022-12-18T01:46:25.835Z,102232.97
2022-12-18T01:48:55.634Z,102231.73
2022-12-18T01:51:22.846Z,102230.91
2022-12-18T01:53:49.547Z,102235.01
2022-12-18T01:56:18.465Z,102239.11
2022-12-18T01:58:57.032Z,102241.94
2022-12-18T02:01:24.652Z,102238.57
2022-12-18T02:03:52.175Z,102241.64
2022-12-18T02:06:21.689Z,102240.56
2022-12-18T02:09:03.538Z,102241.16
2022-12-18T02:11:52.881Z,102240.36
2022-12-18T02:14:24.429Z,102240.85
2022-12-18T02:17:01.941Z,102242.98
2022-12-18T02:19:48.386Z,102240.52
2022-12-18T02:22:24.168Z,102244.94
2022-12-18T02:25:12.386Z,102251.10
2022-12-18T02:27:40.366Z,102259.30
2022-12-18T02:30:07.738Z,102253.65
2022-12-18T02:32:39.001Z,102255.70
2022-12-18T02:35:07.013Z,102257.61
2022-12-18T02:37:37.967Z,102266.25
2022-12-18T02:40:05.601Z,102271.60
2022-12-18T02:42:33.001Z,102271.39
2022-12-18T02:44:59.406Z,102267.54
2022-12-18T02:47:30.364Z,102274.57
2022-12-18T02:50:03.202Z,102277.02
2022-12-18T02:52:33.488Z,102271.66
2022-12-18T02:55:09.438Z,102270.75
2022-12-18T02:57:57.317Z,102268.40
2022-12-18T03:00:30.717Z,102267.33
2022-12-18T03:03:14.485Z,102265.27
2022-12-18T03:05:53.954Z,102270.77
2022-12-18T03:08:26.736Z,102269.77
2022-12-18T03:11:03.170Z,102272.70
2022-12-18T03:14:05.333Z,102270.15
2022-12-18T03:16:34.302Z,102269.92
2022-12-18T03:19:03.893Z,102278.54
2022-12-18T03:21:38.033Z,102286.48
2022-12-18T03:24:06.797Z,102291.88
2022-12-18T03:26:35.712Z,102289.09
2022-12-18T03:29:09.693Z,102287.11
2022-12-18T03:31:38.125Z,102276.49
2022-12-18T03:34:13.969Z,102274.80
2022-12-18T03:36:40.689Z,102282.63
2022-12-18T03:39:07.297Z,102285.64
2022-12-18T03:41:34.638Z,102289.80
2022-12-18T03:44:21.730Z,102290.88
2022-12-18T03:46:57.809Z,102294.36
2022-12-18T03:49:48.296Z,102296.10
2022-12-18T03:52:19.096Z,102300.14
2022-12-18T03:54:46.158Z,102302.21
2022-12-18T03:57:16.470Z,102305.94
2022-12-18T03:59:44.840Z,102305.69
2022-12-18T04:02:11.751Z,102311.48
2022-12-18T04:04:39.958Z,102312.92
2022-12-18T04:07:07.150Z,102320.36
2022-12-18T04:09:34.738Z,102319.33
2022-12-18T04:12:01.224Z,102319.04
2022-12-18T04:14:27.737Z,102321.38
2022-12-18T04:16:54.324Z,102317.56
2022-12-18T04:19:20.790Z,102322.64
2022-12-18T04:21:47.381Z,102330.75
2022-12-18T04:24:13.957Z,102335.10
2022-12-18T04:26:40.375Z,102336.13
2022-12-18T04:29:06.923Z,102340.64
2022-12-18T04:31:33.639Z,102344.67
2022-12-18T04:34:00.328Z,102346.14
2022-12-18T04:36:26.901Z,102341.23
2022-12-18T04:38:53.491Z,102335.77
2022-12-18T04:41:19.991Z,102337.77
2022-12-18T04:43:46.600Z,102345.86
2022-12-18T04:46:13.263Z,102348.68
2022-12-18T04:48:39.812Z,102356.86
2022-12-18T04:51:07.169Z,102360.14
2022-12-18T04:53:33.974Z,102358.65
2022-12-18T04:56:09.281Z,102357.17
2022-12-18T04:58:36.905Z,102364.08
2022-12-18T05:01:03.669Z,102368.27
2022-12-18T05:03:30.607Z,102369.55
2022-12-18T05:05:57.235Z,102370.38
2022-12-18T05:08:24.295Z,102374.30
2022-12-18T05:11:02.152Z,102377.24
2022-12-18T05:13:29.697Z,102380.86
2022-12-18T05:15:56.504Z,102381.55
2022-12-18T05:18:23.996Z,102381.68
2022-12-18T05:20:51.819Z,102380.80
2022-12-18T05:23:19.128Z,102382.92
2022-12-18T05:25:55.390Z,102384.42
2022-12-18T05:28:22.703Z,102383.88
2022-12-18T05:30:54.485Z,102386.42
2022-12-18T05:33:22.283Z,102388.41
2022-12-18T05:35:59.967Z,102390.94
2022-12-18T05:38:27.450Z,102391.48
2022-12-18T05:40:54.628Z,102390.66
2022-12-18T05:43:22.396Z,102393.20
2022-12-18T05:45:49.951Z,102400.27
2022-12-18T05:48:17.125Z,102409.95
2022-12-18T05:50:48.014Z,102409.77
2022-12-18T05:53:16.611Z,102412.50
2022-12-18T05:55:43.948Z,102412.92
2022-12-18T05:58:12.072Z,102418.92
2022-12-18T06:00:40.969Z,102426.77
2022-12-18T06:03:09.015Z,102422.73
2022-12-18T06:05:40.554Z,102426.31
2022-12-18T06:08:07.274Z,102428.78
2022-12-18T06:10:34.009Z,102429.25
2022-12-18T06:13:01.037Z,102431.23
2022-12-18T06:15:27.750Z,102429.55
2022-12-18T06:17:54.577Z,102431.08
2022-12-18T06:20:23.741Z,102438.88
2022-12-18T06:22:50.387Z,102444.39
2022-12-18T06:25:17.105Z,102444.08
2022-12-18T06:27:43.861Z,102449.03
2022-12-18T06:30:11.520Z,102456.27
2022-12-18T06:32:38.371Z,102453.90
2022-12-18T06:35:05.332Z,102456.84
2022-12-18T06:37:32.152Z,102456.72
2022-12-18T06:39:58.790Z,102466.70
2022-12-18T06:42:25.374Z,102469.41
2022-12-18T06:44:51.948Z,102474.64
2022-12-18T06:47:19.014Z,102476.36
2022-12-18T06:49:45.442Z,102470.34
2022-12-18T06:52:11.929Z,102469.38
2022-12-18T06:54:38.728Z,102477.54
2022-12-18T06:57:05.171Z,102486.88
2022-12-18T06:59:31.771Z,102490.52
2022-12-18T07:01:58.698Z,102486.45
2022-12-18T07:04:30.211Z,102486.38
2022-12-18T07:06:56.673Z,102488.05
2022-12-18T07:09:24.009Z,102489.65
2022-12-18T07:11:51.089Z,102494.69
2022-12-18T07:14:17.515Z,102496.42
2022-12-18T07:16:44.371Z,102497.80
2022-12-18T07:19:10.813Z,102501.39
2022-12-18T07:21:37.241Z,102505.52
2022-12-18T07:24:04.577Z,102508.10
2022-12-18T07:26:31.046Z,102506.81
2022-12-18T07:28:58.271Z,102507.63
2022-12-18T07:31:25.897Z,102510.88
2022-12-18T07:33:52.284Z,102517.98
2022-12-18T07:36:19.563Z,102524.17
2022-12-18T07:38:50.435Z,102530.19
2022-12-18T07:41:17.065Z,102529.77
2022-12-18T07:43:43.984Z,102531.30
2022-12-18T07:46:11.161Z,102531.41
2022-12-18T07:48:44.299Z,102532.48
2022-12-18T07:51:13.617Z,102538.02
2022-12-18T07:53:41.089Z,102536.11
2022-12-18T07:56:28.056Z,102533.64
2022-12-18T07:58:55.907Z,102537.11
2022-12-18T08:01:22.570Z,102542.05
2022-12-18T08:03:49.066Z,102545.31
2022-12-18T08:06:18.772Z,102551.75
2022-12-18T08:08:45.398Z,102552.33
2022-12-18T08:11:11.793Z,102554.21
2022-12-18T08:13:38.700Z,102557.11
2022-12-18T08:16:07.365Z,102560.44
2022-12-18T08:18:34.908Z,102561.29
2022-12-18T08:21:17.119Z,102564.02
2022-12-18T08:23:43.943Z,102576.80
2022-12-18T08:26:13.833Z,102574.58
2022-12-18T08:28:41.032Z,102574.75
2022-12-18T08:31:08.368Z,102580.14
2022-12-18T08:33:36.014Z,102585.19
2022-12-18T08:36:03.952Z,102589.30
2022-12-18T08:38:31.539Z,102589.96
2022-12-18T08:41:02.563Z,102588.38
2022-12-18T08:43:47.721Z,102586.23
2022-12-18T08:46:21.778Z,102587.91
2022-12-18T08:48:48.916Z,102594.50
2022-12-18T08:51:16.649Z,102600.89
2022-12-18T08:53:43.963Z,102604.63
2022-12-18T08:56:11.131Z,102601.56
2022-12-18T08:58:37.728Z,102607.61
2022-12-18T09:01:06.847Z,102605.00
2022-12-18T09:03:33.469Z,102603.05
2022-12-18T09:06:00.351Z,102603.86
2022-12-18T09:08:27.601Z,102590.00
2022-12-18T09:10:54.625Z,102585.67
2022-12-18T09:13:21.739Z,102574.44
2022-12-18T09:15:51.291Z,102570.85
2022-12-18T09:18:19.304Z,102566.69
2022-12-18T09:20:46.599Z,102560.40
2022-12-18T09:23:13.143Z,102559.15
2022-12-18T09:25:40.066Z,102555.20
2022-12-18T09:28:11.196Z,102551.77
2022-12-18T09:30:57.998Z,102548.60
2022-12-18T09:33:25.161Z,102544.48
2022-12-18T09:35:51.714Z,102544.48
2022-12-18T09:38:19.891Z,102538.52
2022-12-18T09:40:56.298Z,102535.52
2022-12-18T09:43:41.660Z,102537.36
2022-12-18T09:46:09.050Z,102538.56
2022-12-18T09:48:41.313Z,102534.44
2022-12-18T09:51:21.783Z,102531.61
2022-12-18T09:53:54.206Z,102527.81
2022-12-18T09:56:23.328Z,102533.56
2022-12-18T09:59:00.454Z,102535.27
2022-12-18T10:01:36.297Z,102533.77
2022-12-18T10:04:09.252Z,102533.42
2022-12-18T10:06:44.860Z,102544.27
2022-12-18T10:09:14.341Z,102543.85
2022-12-18T10:11:59.396Z,102538.09
2022-12-18T10:14:49.333Z,102538.31
2022-12-18T10:17:46.357Z,102549.67
2022-12-18T10:20:18.099Z,102556.27
2022-12-18T10:23:01.558Z,102554.52
2022-12-18T10:25:37.272Z,102550.45
2022-12-18T10:28:15.057Z,102559.06
2022-12-18T10:30:43.005Z,102556.58
2022-12-18T10:33:15.689Z,102554.05
2022-12-18T10:35:43.352Z,102549.77
2022-12-18T10:38:12.750Z,102553.63
2022-12-18T10:40:50.159Z,102552.30
2022-12-18T10:43:21.998Z,102545.63
2022-12-18T10:46:02.284Z,102545.27
2022-12-18T10:48:30.710Z,102544.65
2022-12-18T10:51:10.713Z,102544.54
2022-12-18T10:53:41.947Z,102547.61
2022-12-18T10:56:08.936Z,102543.55
2022-12-18T10:58:38.903Z,102544.86
2022-12-18T11:01:08.608Z,102552.38
2022-12-18T11:03:41.321Z,102553.73
2022-12-18T11:06:13.518Z,102555.27
2022-12-18T11:08:42.681Z,102560.33
2022-12-18T11:11:21.764Z,102558.64
2022-12-18T11:14:24.868Z,102568.34
2022-12-18T11:19:41.276Z,102577.34
2022-12-18T11:22:37.504Z,102581.88
2022-12-18T11:25:33.083Z,102582.66
2022-12-18T11:28:28.468Z,102590.23
2022-12-18T11:31:28.107Z,102594.44
2022-12-18T11:34:31.902Z,102584.09
2022-12-18T11:36:48.684Z,102574.00
2022-12-18T11:39:20.608Z,102570.61
2022-12-18T11:42:09.511Z,102561.93
2022-12-18T11:45:00.204Z,102555.95
2022-12-18T11:47:37.980Z,102550.95
2022-12-18T11:50:13.353Z,102550.44
2022-12-18T11:52:41.075Z,102549.17
2022-12-18T11:55:21.569Z,102547.45
2022-12-18T11:58:20.492Z,102542.02
2022-12-18T12:00:54.965Z,102542.10
2022-12-18T12:03:49.406Z,102546.13
2022-12-18T12:06:26.521Z,102544.98
2022-12-18T12:09:15.500Z,102547.79
2022-12-18T12:12:12.794Z,102543.45
2022-12-18T12:14:45.853Z,102545.71
2022-12-18T12:17:28.846Z,102546.39
2022-12-18T12:20:22.764Z,102546.02
2022-12-18T12:23:03.484Z,102540.34
2022-12-18T12:25:49.071Z,102540.98
2022-12-18T12:28:50.067Z,102543.45
2022-12-18T12:31:31.960Z,102540.33
2022-12-18T12:34:08.210Z,102537.33
2022-12-18T12:36:46.708Z,102536.18
2022-12-18T12:39:18.906Z,102536.50
2022-12-18T12:42:05.445Z,102534.55
2022-12-18T12:44:55.653Z,102534.16
2022-12-18T12:47:30.256Z,102534.64
2022-12-18T12:50:00.110Z,102533.49
2022-12-18T12:52:56.162Z,102533.71
2022-12-18T12:55:26.120Z,102536.23
2022-12-18T12:58:03.660Z,102542.48
2022-12-18T13:00:39.505Z,102540.34
2022-12-18T13:03:14.755Z,102544.50
2022-12-18T13:05:50.946Z,102551.21
2022-12-18T13:08:30.896Z,102540.34
2022-12-18T13:11:19.768Z,102539.54
2022-12-18T13:13:55.418Z,102534.11
2022-12-18T13:16:25.033Z,102535.66
2022-12-18T13:18:58.284Z,102536.80
2022-12-18T13:21:31.158Z,102540.52
2022-12-18T13:24:14.997Z,102537.09
2022-12-18T13:26:41.906Z,102528.77
2022-12-18T13:29:08.391Z,102525.95
2022-12-18T13:31:41.010Z,102528.64
2022-12-18T13:34:29.499Z,102538.10
2022-12-18T13:37:31.518Z,102538.85
2022-12-18T13:39:58.642Z,102541.98
2022-12-18T13:42:44.014Z,102547.12
2022-12-18T13:45:36.848Z,102552.73
2022-12-18T13:48:04.168Z,102559.39
2022-12-18T13:50:36.076Z,102566.36
2022-12-18T13:53:04.178Z,102569.05
2022-12-18T13:55:30.677Z,102566.42
2022-12-18T13:58:05.269Z,102565.81
2022-12-18T14:00:32.202Z,102569.20
2022-12-18T14:02:59.723Z,102567.23
2022-12-18T14:05:30.397Z,102563.52
2022-12-18T14:08:10.761Z,102566.88
2022-12-18T14:10:49.097Z,102573.77
2022-12-18T14:13:24.206Z,102577.47
2022-12-18T14:15:51.270Z,102581.62
2022-12-18T14:18:25.128Z,102590.48
2022-12-18T14:20:53.814Z,102595.09
2022-12-18T14:23:34.817Z,102589.14
2022-12-18T14:26:06.114Z,102597.41
2022-12-18T14:28:33.034Z,102599.67
2022-12-18T14:30:59.602Z,102606.16
2022-12-18T14:33:27.922Z,102607.85
2022-12-18T14:36:04.776Z,102610.40
2022-12-18T14:38:34.201Z,102609.03
2022-12-18T14:41:06.010Z,102609.19
2022-12-18T14:43:35.780Z,102594.42
2022-12-18T14:46:04.501Z,102600.23
2022-12-18T14:48:41.599Z,102602.83
2022-12-18T14:51:24.550Z,102604.79
2022-12-18T14:54:02.289Z,102603.24
2022-12-18T14:56:37.638Z,102601.28
2022-12-18T14:59:05.832Z,102612.45
2022-12-18T15:01:36.027Z,102612.80
2022-12-18T15:04:04.830Z,102614.85
2022-12-18T15:06:37.065Z,102611.15
2022-12-18T15:09:24.005Z,102605.42
2022-12-18T15:11:57.036Z,102604.31
2022-12-18T15:14:37.921Z,102596.52
2022-12-18T15:17:14.016Z,102593.77
2022-12-18T15:19:42.564Z,102597.48
2022-12-18T15:22:27.267Z,102607.96
2022-12-18T15:24:55.511Z,102610.89
2022-12-18T15:27:22.899Z,102610.17
2022-12-18T15:30:11.024Z,102611.89
2022-12-18T15:32:38.455Z,102607.80
2022-12-18T15:35:11.318Z,102614.81
2022-12-18T15:37:38.733Z,102611.79
2022-12-18T15:40:08.176Z,102610.30
2022-12-18T15:42:53.602Z,102606.73
2022-12-18T15:45:20.417Z,102596.27
2022-12-18T15:47:49.051Z,102586.17
2022-12-18T15:50:15.792Z,102581.45
2022-12-18T15:52:50.013Z,102583.02
2022-12-18T15:55:36.512Z,102580.66
2022-12-18T15:58:05.515Z,102576.06
2022-12-18T16:00:33.472Z,102569.23
2022-12-18T16:03:00.386Z,102563.73
2022-12-18T16:05:28.190Z,102563.48
2022-12-18T16:07:54.784Z,102560.01
2022-12-18T16:10:21.442Z,102553.96
2022-12-18T16:12:48.555Z,102560.15
2022-12-18T16:15:20.996Z,102560.34
2022-12-18T16:17:52.129Z,102560.02
2022-12-18T16:20:21.798Z,102559.39
2022-12-18T16:22:48.955Z,102562.97
2022-12-18T16:25:28.223Z,102558.89
2022-12-18T16:27:56.109Z,102555.50
2022-12-18T16:30:27.556Z,102548.75
2022-12-18T16:32:55.475Z,102544.66
2022-12-18T16:35:22.300Z,102555.30
2022-12-18T16:37:49.738Z,102551.14
2022-12-18T16:40:17.309Z,102545.67
2022-12-18T16:42:45.816Z,102542.33
2022-12-18T16:45:16.626Z,102542.42
2022-12-18T16:47:43.276Z,102543.02
2022-12-18T16:50:10.084Z,102540.08
2022-12-18T16:52:36.722Z,102543.84
2022-12-18T16:55:03.793Z,102542.00
2022-12-18T16:57:30.397Z,102544.50
2022-12-18T17:00:02.933Z,102546.55
2022-12-18T17:02:31.950Z,102545.48
2022-12-18T17:04:58.965Z,102539.56
2022-12-18T17:07:26.245Z,102545.69
2022-12-18T17:09:53.510Z,102555.20
2022-12-18T17:12:20.918Z,102563.95
2022-12-18T17:14:47.544Z,102567.48
2022-12-18T17:17:23.140Z,102564.20
2022-12-18T17:19:51.581Z,102563.42
2022-12-18T17:22:18.566Z,102566.56
2022-12-18T17:24:46.249Z,102567.08
2022-12-18T17:27:12.887Z,102554.10
2022-12-18T17:29:45.387Z,102554.28
2022-12-18T17:32:14.594Z,102557.38
2022-12-18T17:34:41.332Z,102559.52
2022-12-18T17:37:08.442Z,102561.50
2022-12-18T17:39:35.359Z,102571.33
2022-12-18T17:42:02.163Z,102573.83
2022-12-18T17:44:28.724Z,102570.92
2022-12-18T17:46:55.530Z,102567.94
2022-12-18T17:49:22.183Z,102570.69
2022-12-18T17:51:49.117Z,102573.81
2022-12-18T17:54:15.947Z,102567.23
2022-12-18T17:56:42.788Z,102562.52
2022-12-18T17:59:09.325Z,102561.84
2022-12-18T18:01:42.406Z,102567.80
2022-12-18T18:04:11.454Z,102570.44
2022-12-18T18:06:38.852Z,102574.30
2022-12-18T18:09:16.283Z,102573.48
2022-12-18T18:12:09.549Z,102579.94
2022-12-18T18:14:41.491Z,102582.63
2022-12-18T18:17:22.217Z,102576.23
2022-12-18T18:19:49.794Z,102578.05
2022-12-18T18:22:20.927Z,102571.27
2022-12-18T18:24:55.985Z,102569.03
2022-12-18T18:27:36.897Z,102555.51
2022-12-18T18:30:07.577Z,102549.24
2022-12-18T18:32:51.271Z,102545.78
2022-12-18T18:35:54.875Z,102544.44
2022-12-18T18:38:14.275Z,102540.84
2022-12-18T18:40:41.808Z,102538.86
2022-12-18T18:43:09.819Z,102541.87
2022-12-18T18:45:36.695Z,102546.24
2022-12-18T18:48:05.597Z,102545.13
2022-12-18T18:50:32.618Z,102549.34
2022-12-18T18:52:59.184Z,102555.19
2022-12-18T18:55:25.956Z,102554.99
2022-12-18T18:57:52.641Z,102557.11
2022-12-18T19:00:19.476Z,102557.04
2022-12-18T19:02:50.005Z,102560.66
2022-12-18T19:05:16.774Z,102554.19
2022-12-18T19:07:43.539Z,102549.29
2022-12-18T19:10:10.585Z,102544.75
2022-12-18T19:12:56.025Z,102546.02
2022-12-18T19:15:22.696Z,102548.84
2022-12-18T19:17:49.200Z,102556.08
2022-12-18T19:20:16.006Z,102562.82
2022-12-18T19:22:42.761Z,102560.16
2022-12-18T19:25:09.832Z,102556.20
2022-12-18T19:27:39.434Z,102559.46
2022-12-18T19:30:06.898Z,102560.24
2022-12-18T19:32:33.781Z,102559.35
2022-12-18T19:35:00.266Z,102546.94
2022-12-18T19:37:27.689Z,102544.10
2022-12-18T19:39:55.671Z,102544.06
2022-12-18T19:42:28.093Z,102538.11
2022-12-18T19:44:56.621Z,102537.52
2022-12-18T19:47:23.113Z,102528.95
2022-12-18T19:49:49.716Z,102524.80
2022-12-18T19:52:16.501Z,102531.80
2022-12-18T19:54:48.372Z,102532.02
2022-12-18T19:57:16.363Z,102530.05
2022-12-18T19:59:48.573Z,102528.70
2022-12-18T20:02:21.508Z,102522.27
2022-12-18T20:04:50.561Z,102519.73
2022-12-18T20:07:23.304Z,102520.61
2022-12-18T20:09:59.615Z,102520.68
2022-12-18T20:12:43.382Z,102526.66
2022-12-18T20:15:11.868Z,102525.73
2022-12-18T20:17:39.622Z,102524.77
2022-12-18T20:20:18.160Z,102524.27
2022-12-18T20:22:45.222Z,102525.94
2022-12-18T20:25:17.945Z,102525.30
2022-12-18T20:27:50.308Z,102526.76
2022-12-18T20:30:29.883Z,102523.41
2022-12-18T20:32:58.149Z,102526.39
2022-12-18T20:35:30.497Z,102526.05
2022-12-18T20:37:58.163Z,102524.35
2022-12-18T20:40:31.726Z,102522.17
2022-12-18T20:42:58.205Z,102515.58
2022-12-18T20:45:28.632Z,102519.89
2022-12-18T20:48:26.408Z,102522.77
2022-12-18T20:51:03.646Z,102517.20
2022-12-18T20:53:31.918Z,102514.14
2022-12-18T20:56:08.001Z,102517.34
2022-12-18T20:58:38.974Z,102520.59
2022-12-18T21:01:13.677Z,102522.09
2022-12-18T21:03:46.471Z,102522.66
2022-12-18T21:06:17.060Z,102527.66
2022-12-18T21:08:44.997Z,102526.04
2022-12-18T21:11:44.368Z,102525.05
2022-12-18T21:14:26.193Z,102527.59
2022-12-18T21:16:57.251Z,102527.88
2022-12-18T21:19:26.755Z,102526.23
2022-12-18T21:21:57.195Z,102530.05
2022-12-18T21:24:32.570Z,102528.33
2022-12-18T21:27:00.064Z,102523.83
2022-12-18T21:29:26.900Z,102517.84
2022-12-18T21:31:57.753Z,102511.55
2022-12-18T21:34:28.476Z,102509.45
2022-12-18T21:37:04.720Z,102504.05
2022-12-18T21:39:34.622Z,102496.52
2022-12-18T21:42:21.900Z,102498.00
2022-12-18T21:44:49.214Z,102490.39
2022-12-18T21:47:21.753Z,102485.69
2022-12-18T21:49:51.510Z,102486.46
2022-12-18T21:52:34.377Z,102486.84
2022-12-18T21:55:10.227Z,102475.64
2022-12-18T21:57:38.868Z,102466.56
2022-12-18T22:00:19.093Z,102453.63
2022-12-18T22:03:05.672Z,102448.39
2022-12-18T22:05:43.251Z,102446.81
2022-12-18T22:08:13.401Z,102443.96
2022-12-18T22:10:44.174Z,102441.31
2022-12-18T22:13:11.454Z,102435.39
2022-12-18T22:15:40.859Z,102434.50
2022-12-18T22:18:21.082Z,102435.27
2022-12-18T22:21:03.733Z,102436.98
2022-12-18T22:23:33.856Z,102437.19
2022-12-18T22:26:01.850Z,102433.09
2022-12-18T22:28:53.509Z,102430.63
2022-12-18T22:31:20.379Z,102429.83
2022-12-18T22:33:47.299Z,102432.14
2022-12-18T22:36:14.074Z,102431.23
2022-12-18T22:38:42.954Z,102430.26
2022-12-18T22:41:09.597Z,102430.41
2022-12-18T22:43:36.463Z,102423.21
2022-12-18T22:46:03.188Z,102415.87
2022-12-18T22:48:30.040Z,102412.63
2022-12-18T22:50:59.359Z,102408.77
2022-12-18T22:53:26.378Z,102403.09
2022-12-18T22:56:00.631Z,102396.52
2022-12-18T22:58:27.419Z,102394.98
2022-12-18T23:00:54.134Z,102394.59
2022-12-18T23:03:20.902Z,102394.47
2022-12-18T23:05:47.544Z,102391.23
2022-12-18T23:08:14.046Z,102392.11
2022-12-18T23:10:40.563Z,102389.63
2022-12-18T23:13:07.407Z,102393.21
2022-12-18T23:15:33.875Z,102392.74
2022-12-18T23:18:00.545Z,102390.65
2022-12-18T23:20:27.344Z,102383.08
2022-12-18T23:22:53.846Z,102378.55
2022-12-18T23:25:20.961Z,102378.88
2022-12-18T23:27:47.820Z,102376.28
2022-12-18T23:30:15.066Z,102378.28
2022-12-18T23:32:41.574Z,102371.99
2022-12-18T23:35:08.315Z,102377.27
2022-12-18T23:37:58.928Z,102371.14
2022-12-18T23:40:23.770Z,102366.57
2022-12-18T23:42:50.679Z,102360.40
2022-12-18T23:45:18.288Z,102359.95
2022-12-18T23:47:45.335Z,102358.35
2022-12-18T23:50:14.516Z,102357.05
2022-12-18T23:52:41.249Z,102355.58
2022-12-18T23:55:08.145Z,102347.63
2022-12-18T23:57:34.600Z,102344.66
